createdAt,value
2018-06-24T00:00:14.188Z,99.99
2018-06-24T00:01:14.165Z,99.99
2018-06-24T00:02:14.161Z,99.99
2018-06-24T00:03:14.128Z,99.99
2018-06-24T00:04:14.109Z,99.99
2018-06-24T00:05:14.093Z,99.99
2018-06-24T00:06:14.084Z,99.99
2018-06-24T00:07:14.072Z,99.99
2018-06-24T00:08:14.048Z,99.99
2018-06-24T00:09:14.027Z,99.99
2018-06-24T00:10:14.008Z,99.99
2018-06-24T00:11:13.985Z,99.99
2018-06-24T00:12:13.985Z,99.99
2018-06-24T00:13:13.955Z,99.99
2018-06-24T00:14:14.016Z,99.99
2018-06-24T00:15:13.917Z,99.99
2018-06-24T00:16:13.898Z,99.99
2018-06-24T00:17:13.912Z,99.99
2018-06-24T00:18:13.864Z,99.99
2018-06-24T00:19:13.848Z,99.99
2018-06-24T00:20:13.828Z,99.99
2018-06-24T00:21:13.808Z,99.99
2018-06-24T00:22:13.803Z,99.99
2018-06-24T00:23:13.775Z,99.99
2018-06-24T00:24:13.756Z,99.99
2018-06-24T00:25:13.741Z,99.99
2018-06-24T00:26:13.722Z,99.99
2018-06-24T00:27:13.720Z,99.99
2018-06-24T00:28:13.685Z,99.99
2018-06-24T00:29:13.673Z,99.99
2018-06-24T00:30:13.651Z,99.99
2018-06-24T00:31:13.638Z,99.99
2018-06-24T00:32:13.636Z,99.99
2018-06-24T00:33:13.619Z,99.99
2018-06-24T00:34:13.581Z,99.99
2018-06-24T00:35:13.562Z,99.99
2018-06-24T00:36:13.542Z,99.99
2018-06-24T00:37:13.576Z,99.99
2018-06-24T00:38:13.508Z,99.99
2018-06-24T00:39:13.491Z,99.99
2018-06-24T00:40:13.472Z,99.99
2018-06-24T00:41:13.457Z,99.99
2018-06-24T00:42:13.450Z,99.99
2018-06-24T00:43:13.418Z,99.99
2018-06-24T00:44:13.405Z,99.99
2018-06-24T00:45:13.383Z,99.99
2018-06-24T00:46:13.369Z,99.99
2018-06-24T00:47:13.359Z,99.99
2018-06-24T00:48:13.329Z,99.99
2018-06-24T00:49:13.308Z,99.99
2018-06-24T00:50:13.294Z,99.99
2018-06-24T00:51:13.274Z,99.99
2018-06-24T00:52:13.272Z,99.99
2018-06-24T00:53:13.240Z,99.99
2018-06-24T00:54:13.221Z,99.99
2018-06-24T00:55:13.203Z,99.99
2018-06-24T00:56:13.184Z,99.99
2018-06-24T00:57:13.183Z,99.99
2018-06-24T00:58:13.150Z,99.99
2018-06-24T00:59:13.132Z,99.99
2018-06-24T01:00:13.117Z,99.99
2018-06-24T01:01:13.096Z,99.99
2018-06-24T01:02:13.090Z,99.99
2018-06-24T01:03:13.059Z,99.99
2018-06-24T01:04:13.076Z,99.99
2018-06-24T01:05:13.027Z,99.99
2018-06-24T01:06:13.009Z,99.99
2018-06-24T01:07:12.999Z,99.99
2018-06-24T01:08:12.970Z,99.99
2018-06-24T01:09:12.953Z,99.99
2018-06-24T01:10:12.936Z,99.99
2018-06-24T01:11:12.917Z,99.99
2018-06-24T01:12:12.922Z,99.99
2018-06-24T01:13:12.881Z,99.99
2018-06-24T01:14:12.866Z,99.99
2018-06-24T01:15:12.854Z,99.99
2018-06-24T01:16:12.827Z,99.99
2018-06-24T01:17:12.825Z,99.99
2018-06-24T01:18:12.793Z,99.99
2018-06-24T01:19:12.775Z,99.99
2018-06-24T01:20:12.764Z,99.99
2018-06-24T01:21:12.737Z,99.99
2018-06-24T01:22:12.728Z,99.99
2018-06-24T01:23:12.703Z,99.99
2018-06-24T01:24:12.684Z,99.99
2018-06-24T01:25:12.665Z,99.99
2018-06-24T01:26:12.647Z,99.99
2018-06-24T01:27:12.642Z,99.99
2018-06-24T01:28:12.612Z,99.99
2018-06-24T01:29:12.595Z,99.99
2018-06-24T01:30:12.582Z,99.99
2018-06-24T01:31:12.561Z,99.99
2018-06-24T01:32:12.560Z,99.99
2018-06-24T01:33:12.523Z,99.99
2018-06-24T01:34:12.504Z,99.99
2018-06-24T01:35:12.487Z,99.99
2018-06-24T01:36:12.470Z,99.99
2018-06-24T01:37:12.446Z,99.99
2018-06-24T01:38:12.488Z,99.99
2018-06-24T01:39:12.416Z,99.99
2018-06-24T01:40:12.399Z,99.99
2018-06-24T01:41:12.375Z,99.99
2018-06-24T01:42:12.373Z,99.99
2018-06-24T01:43:12.348Z,99.99
2018-06-24T01:44:12.338Z,99.99
2018-06-24T01:45:12.309Z,99.99
2018-06-24T01:46:12.299Z,99.99
2018-06-24T01:47:12.273Z,99.99
2018-06-24T01:48:12.257Z,99.99
2018-06-24T01:49:12.264Z,99.99
2018-06-24T01:50:12.225Z,99.99
2018-06-24T01:51:12.211Z,99.99
2018-06-24T01:52:12.183Z,99.99
2018-06-24T01:53:12.167Z,99.99
2018-06-24T01:54:12.151Z,99.99
2018-06-24T01:55:12.163Z,99.99
2018-06-24T01:56:12.111Z,99.99
2018-06-24T01:57:12.095Z,99.99
2018-06-24T01:58:12.087Z,99.99
2018-06-24T01:59:12.060Z,99.99
2018-06-24T02:00:12.039Z,99.99
2018-06-24T02:01:12.033Z,99.99
2018-06-24T02:02:12.009Z,99.99
2018-06-24T02:03:11.986Z,99.99
2018-06-24T02:04:11.974Z,99.99
2018-06-24T02:05:11.951Z,99.99
2018-06-24T02:06:11.950Z,99.99
2018-06-24T02:07:11.917Z,99.99
2018-06-24T02:08:11.899Z,99.99
2018-06-24T02:09:11.883Z,99.99
2018-06-24T02:10:11.861Z,99.99
2018-06-24T02:11:11.841Z,99.99
2018-06-24T02:12:11.852Z,99.99
2018-06-24T02:13:11.808Z,99.99
2018-06-24T02:14:11.793Z,99.99
2018-06-24T02:15:11.775Z,99.99
2018-06-24T02:16:11.762Z,99.99
2018-06-24T02:17:11.736Z,99.99
2018-06-24T02:18:11.740Z,99.99
2018-06-24T02:19:11.699Z,99.99
2018-06-24T02:20:11.682Z,99.99
2018-06-24T02:21:11.699Z,99.99
2018-06-24T02:22:11.645Z,99.99
2018-06-24T02:23:11.627Z,99.99
2018-06-24T02:24:11.625Z,99.99
2018-06-24T02:25:11.587Z,99.99
2018-06-24T02:26:11.577Z,99.99
2018-06-24T02:27:11.556Z,99.99
2018-06-24T02:28:11.540Z,99.99
2018-06-24T02:29:11.542Z,99.99
2018-06-24T02:30:11.504Z,99.99
2018-06-24T02:31:11.487Z,99.99
2018-06-24T02:32:11.472Z,99.99
2018-06-24T02:33:11.450Z,99.99
2018-06-24T02:34:11.429Z,99.99
2018-06-24T02:35:11.435Z,99.99
2018-06-24T02:36:11.395Z,99.99
2018-06-24T02:37:11.377Z,99.99
2018-06-24T02:38:11.360Z,99.99
2018-06-24T02:39:11.340Z,99.99
2018-06-24T02:40:11.329Z,99.99
2018-06-24T02:41:11.315Z,99.99
2018-06-24T02:42:11.296Z,99.99
2018-06-24T02:43:11.269Z,99.99
2018-06-24T02:44:11.251Z,99.99
2018-06-24T02:45:11.242Z,99.99
2018-06-24T02:46:11.238Z,99.99
2018-06-24T02:47:11.196Z,99.99
2018-06-24T02:48:11.183Z,99.99
2018-06-24T02:49:11.169Z,99.99
2018-06-24T02:50:11.144Z,99.99
2018-06-24T02:51:11.125Z,99.99
2018-06-24T02:52:11.129Z,99.99
2018-06-24T02:53:11.096Z,99.99
2018-06-24T02:54:11.075Z,99.99
2018-06-24T02:55:11.061Z,99.99
2018-06-24T02:56:11.037Z,99.99
2018-06-24T02:57:11.019Z,99.99
2018-06-24T02:58:11.020Z,99.99
2018-06-24T02:59:10.982Z,99.99
2018-06-24T03:00:10.965Z,99.99
2018-06-24T03:01:10.945Z,99.99
2018-06-24T03:02:10.925Z,99.99
2018-06-24T03:03:10.931Z,99.99
2018-06-24T03:04:10.897Z,99.99
2018-06-24T03:05:10.876Z,99.99
2018-06-24T03:06:10.860Z,99.99
2018-06-24T03:07:10.838Z,99.99
2018-06-24T03:08:10.822Z,99.99
2018-06-24T03:09:10.821Z,99.99
2018-06-24T08:09:28.234Z,99.99
2018-06-24T08:10:28.206Z,99.99
2018-06-24T08:11:28.188Z,99.99
2018-06-24T08:12:28.173Z,99.99
2018-06-24T08:13:28.156Z,99.99
2018-06-24T08:14:28.157Z,99.54
2018-06-24T08:15:28.124Z,99.99
2018-06-24T08:16:28.110Z,99.99
2018-06-24T08:17:28.094Z,99.99
2018-06-24T08:18:28.078Z,99.99
2018-06-24T08:19:28.063Z,99.99
2018-06-24T08:20:28.065Z,99.99
2018-06-24T08:21:28.034Z,99.99
2018-06-24T08:22:28.022Z,99.99
2018-06-24T08:23:28.008Z,99.99
2018-06-24T08:24:27.990Z,99.99
2018-06-24T08:25:27.975Z,99.99
2018-06-24T08:26:27.972Z,99.99
2018-06-24T08:27:27.948Z,99.99
2018-06-24T08:28:27.933Z,99.99
2018-06-24T08:29:27.921Z,99.99
2018-06-24T08:30:27.909Z,99.99
2018-06-24T08:31:27.901Z,99.99
2018-06-24T08:32:27.879Z,99.99
2018-06-24T08:33:27.861Z,98.10
2018-06-24T08:34:27.847Z,94.31
2018-06-24T08:35:27.834Z,98.53
2018-06-24T08:36:27.819Z,96.70
2018-06-24T08:37:27.835Z,94.78
2018-06-24T08:38:27.789Z,95.40
2018-06-24T08:39:27.779Z,95.40
2018-06-24T08:40:27.762Z,93.19
2018-06-24T08:41:27.748Z,93.19
2018-06-24T08:42:27.735Z,90.80
2018-06-24T08:43:27.731Z,88.15
2018-06-24T08:44:27.708Z,88.06
2018-06-24T08:45:27.693Z,84.50
2018-06-24T08:46:27.678Z,82.67
2018-06-24T08:47:27.668Z,83.30
2018-06-24T08:48:27.666Z,85.47
2018-06-24T08:49:27.639Z,87.10
2018-06-24T08:50:27.626Z,88.39
2018-06-24T08:51:27.612Z,89.07
2018-06-24T08:52:27.599Z,87.68
2018-06-24T08:53:27.585Z,87.39
2018-06-24T08:54:27.660Z,86.43
2018-06-24T08:55:27.560Z,87.49
2018-06-24T08:56:27.548Z,88.93
2018-06-24T08:57:27.533Z,90.46
2018-06-24T08:58:27.517Z,90.84
2018-06-24T08:59:27.509Z,92.33
2018-06-24T09:00:27.513Z,95.03
2018-06-24T09:01:27.477Z,97.38
2018-06-24T09:02:27.464Z,95.89
2018-06-24T09:03:27.460Z,94.26
2018-06-24T09:04:27.439Z,93.54
2018-06-24T09:05:27.424Z,95.12
2018-06-24T09:06:27.422Z,96.13
2018-06-24T09:07:27.397Z,93.63
2018-06-24T09:08:27.384Z,90.84
2018-06-24T09:09:27.370Z,92.48
2018-06-24T09:10:27.357Z,88.45
2018-06-24T09:11:27.375Z,88.83
2018-06-24T09:12:27.329Z,87.15
2018-06-24T09:13:27.315Z,85.95
2018-06-24T09:14:27.302Z,87.43
2018-06-24T09:15:27.296Z,86.18
2018-06-24T09:16:27.275Z,85.13
2018-06-24T09:17:27.293Z,85.99
2018-06-24T09:18:27.248Z,86.38
2018-06-24T09:19:27.235Z,86.57
2018-06-24T09:20:27.221Z,85.75
2018-06-24T09:21:27.213Z,85.85
2018-06-24T09:22:27.195Z,87.39
2018-06-24T09:23:27.193Z,88.93
2018-06-24T09:24:27.168Z,90.27
2018-06-24T09:25:27.151Z,88.54
2018-06-24T09:26:27.141Z,89.07
2018-06-24T09:27:27.132Z,86.96
2018-06-24T09:28:27.146Z,88.98
2018-06-24T09:29:27.100Z,89.98
2018-06-24T09:30:27.088Z,88.49
2018-06-24T09:31:27.075Z,88.93
2018-06-24T09:32:27.061Z,86.48
2018-06-24T09:33:27.048Z,87.25
2018-06-24T09:34:27.066Z,87.63
2018-06-24T09:35:27.019Z,88.31
2018-06-24T09:36:27.007Z,89.65
2018-06-24T09:37:26.992Z,87.15
2018-06-24T09:38:26.978Z,87.44
2018-06-24T09:39:26.966Z,88.06
2018-06-24T09:40:26.961Z,87.49
2018-06-24T09:41:26.939Z,87.63
2018-06-24T09:42:26.924Z,86.91
2018-06-24T09:43:26.914Z,86.72
2018-06-24T09:44:26.899Z,85.57
2018-06-24T09:45:26.898Z,86.52
2018-06-24T09:46:26.871Z,86.62
2018-06-24T09:47:26.863Z,87.49
2018-06-24T09:48:26.844Z,87.25
2018-06-24T09:49:26.829Z,88.06
2018-06-24T09:50:26.817Z,89.16
2018-06-24T09:51:26.821Z,88.30
2018-06-24T09:52:26.789Z,88.59
2018-06-24T09:53:26.777Z,87.24
2018-06-24T09:54:26.762Z,86.24
2018-06-24T09:55:26.751Z,86.68
2018-06-24T09:56:26.736Z,87.10
2018-06-24T09:57:26.736Z,87.82
2018-06-24T09:58:26.716Z,87.01
2018-06-24T09:59:26.695Z,87.34
2018-06-24T10:00:26.686Z,85.51
2018-06-24T10:01:26.672Z,85.41
2018-06-24T10:02:26.658Z,86.90
2018-06-24T10:03:26.665Z,84.78
2018-06-24T10:04:26.629Z,83.97
2018-06-24T10:05:26.614Z,83.59
2018-06-24T10:06:26.613Z,84.74
2018-06-24T10:07:26.587Z,84.98
2018-06-24T10:08:26.589Z,83.25
2018-06-24T10:09:26.560Z,83.97
2018-06-24T10:10:26.548Z,83.83
2018-06-24T10:11:26.535Z,84.59
2018-06-24T10:12:26.524Z,80.46
2018-06-24T10:13:26.508Z,80.07
2018-06-24T10:14:26.528Z,78.53
2018-06-24T10:15:26.486Z,77.96
2018-06-24T10:16:26.474Z,77.76
2018-06-24T10:17:26.500Z,78.09
2018-06-24T10:18:26.442Z,78.00
2018-06-24T10:19:26.431Z,78.34
2018-06-24T10:20:26.430Z,76.81
2018-06-24T10:21:26.405Z,78.63
2018-06-24T10:22:26.390Z,74.92
2018-06-24T10:23:26.379Z,74.05
2018-06-24T10:24:26.367Z,76.01
2018-06-24T10:25:26.386Z,74.73
2018-06-24T10:26:26.340Z,74.25
2018-06-24T10:27:26.330Z,73.42
2018-06-24T10:28:26.315Z,73.74
2018-06-24T10:29:26.357Z,70.89
2018-06-24T10:30:26.289Z,70.86
2018-06-24T10:31:26.312Z,69.57
2018-06-24T10:32:26.265Z,71.11
2018-06-24T10:33:26.255Z,70.18
2018-06-24T10:34:26.722Z,70.18
2018-06-24T10:35:26.227Z,68.35
2018-06-24T10:36:26.215Z,68.03
2018-06-24T10:37:26.212Z,68.90
2018-06-24T10:38:26.192Z,69.85
2018-06-24T10:39:26.179Z,71.49
2018-06-24T10:40:26.166Z,71.97
2018-06-24T10:41:26.154Z,71.88
2018-06-24T10:42:26.154Z,67.74
2018-06-24T10:43:26.130Z,68.90
2018-06-24T10:44:26.119Z,69.67
2018-06-24T10:45:26.104Z,69.60
2018-06-24T10:46:26.097Z,69.54
2018-06-24T10:47:26.081Z,69.22
2018-06-24T10:48:26.100Z,68.99
2018-06-24T10:49:26.056Z,69.38
2018-06-24T10:50:26.045Z,69.99
2018-06-24T10:51:26.034Z,70.47
2018-06-24T10:52:26.023Z,69.47
2018-06-24T10:53:26.010Z,70.66
2018-06-24T10:54:26.005Z,69.35
2018-06-24T10:55:25.985Z,68.64
2018-06-24T10:56:25.972Z,70.66
2018-06-24T10:57:25.966Z,70.12
2018-06-24T10:58:25.949Z,68.77
2018-06-24T10:59:25.979Z,69.51
2018-06-24T11:00:25.933Z,70.50
2018-06-24T11:01:25.911Z,73.19
2018-06-24T11:02:25.900Z,72.29
2018-06-24T11:03:25.888Z,71.33
2018-06-24T11:04:25.877Z,71.23
2018-06-24T11:05:25.878Z,70.30
2018-06-24T11:06:25.851Z,70.59
2018-06-24T11:07:25.840Z,68.13
2018-06-24T11:08:25.831Z,67.58
2018-06-24T11:09:25.814Z,68.35
2018-06-24T11:10:25.803Z,66.27
2018-06-24T11:11:25.805Z,65.85
2018-06-24T11:12:25.779Z,64.40
2018-06-24T11:13:25.771Z,63.02
2018-06-24T11:14:25.755Z,65.56
2018-06-24T11:15:25.742Z,67.10
2018-06-24T11:16:25.759Z,69.12
2018-06-24T11:17:25.726Z,68.60
2018-06-24T11:18:25.707Z,68.32
2018-06-24T11:19:25.694Z,68.41
2018-06-24T11:20:25.681Z,65.94
2018-06-24T11:21:25.680Z,66.55
2018-06-24T11:22:25.671Z,66.01
2018-06-24T11:23:25.644Z,64.18
2018-06-24T11:24:25.633Z,64.63
2018-06-24T11:25:25.622Z,63.18
2018-06-24T11:26:25.608Z,61.99
2018-06-24T11:27:25.596Z,60.71
2018-06-24T11:28:25.616Z,61.41
2018-06-24T11:29:25.570Z,61.77
2018-06-24T11:30:25.561Z,60.55
2018-06-24T11:31:25.548Z,60.16
2018-06-24T11:32:25.536Z,60.55
2018-06-24T11:33:25.526Z,61.32
2018-06-24T11:34:25.523Z,61.77
2018-06-24T11:35:25.502Z,62.99
2018-06-24T11:36:25.490Z,65.14
2018-06-24T11:37:25.480Z,66.58
2018-06-24T11:38:25.468Z,68.22
2018-06-24T11:39:25.469Z,67.90
2018-06-24T11:40:25.443Z,67.65
2018-06-24T11:41:25.432Z,65.20
2018-06-24T11:42:25.420Z,63.73
2018-06-24T11:43:25.407Z,62.57
2018-06-24T11:44:25.394Z,60.80
2018-06-24T11:45:25.397Z,60.58
2018-06-24T11:46:25.373Z,61.93
2018-06-24T11:47:25.360Z,62.45
2018-06-24T11:48:25.355Z,64.53
2018-06-24T11:49:25.335Z,66.14
2018-06-24T11:50:25.325Z,66.20
2018-06-24T11:51:25.325Z,65.97
2018-06-24T11:52:25.304Z,66.65
2018-06-24T11:53:25.289Z,67.22
2018-06-24T11:54:25.277Z,67.65
2018-06-24T11:55:25.267Z,66.68
2018-06-24T11:56:25.267Z,65.81
2018-06-24T11:57:25.239Z,65.01
2018-06-24T11:58:25.230Z,64.34
2018-06-24T11:59:25.220Z,64.76
2018-06-24T12:00:25.206Z,63.89
2018-06-24T12:01:25.192Z,63.85
2018-06-24T12:02:25.223Z,60.42
2018-06-24T12:03:25.171Z,59.62
2018-06-24T12:04:25.158Z,60.49
2018-06-24T12:05:25.145Z,60.62
2018-06-24T12:06:25.133Z,62.74
2018-06-24T12:07:25.121Z,63.54
2018-06-24T12:08:25.125Z,62.67
2018-06-24T12:09:25.098Z,62.80
2018-06-24T12:10:25.088Z,62.99
2018-06-24T12:11:25.073Z,63.18
2018-06-24T12:12:25.123Z,63.79
2018-06-24T12:13:25.050Z,64.08
2018-06-24T12:14:25.046Z,65.14
2018-06-24T12:15:25.028Z,65.17
2018-06-24T12:16:25.017Z,64.34
2018-06-24T12:17:27.726Z,62.12
2018-06-24T12:18:24.991Z,61.29
2018-06-24T12:19:24.992Z,57.75
2018-06-24T12:20:24.966Z,57.34
2018-06-24T12:21:24.953Z,57.62
2018-06-24T12:22:24.942Z,57.56
2018-06-24T12:23:24.929Z,58.87
2018-06-24T12:24:24.917Z,57.34
2018-06-24T12:25:24.919Z,58.17
2018-06-24T12:26:24.893Z,57.26
2018-06-24T12:27:24.881Z,56.48
2018-06-24T12:28:24.871Z,55.33
2018-06-24T12:29:24.862Z,55.52
2018-06-24T12:30:24.846Z,56.62
2018-06-24T12:31:24.845Z,58.65
2018-06-24T12:32:24.824Z,60.00
2018-06-24T12:33:24.813Z,59.75
2018-06-24T12:34:24.799Z,61.22
2018-06-24T12:35:24.788Z,61.22
2018-06-24T12:36:24.792Z,62.03
2018-06-24T12:37:24.818Z,60.77
2018-06-24T12:38:24.753Z,58.94
2018-06-24T12:39:24.742Z,58.59
2018-06-24T12:40:24.736Z,59.36
2018-06-24T12:41:24.717Z,60.32
2018-06-24T12:42:24.722Z,59.42
2018-06-24T12:43:24.705Z,58.10
2018-06-24T12:44:24.686Z,57.85
2018-06-24T12:45:24.672Z,58.84
2018-06-24T12:46:24.661Z,57.29
2018-06-24T12:47:24.652Z,57.20
2018-06-24T12:48:24.650Z,58.11
2018-06-24T12:49:24.647Z,57.65
2018-06-24T12:50:24.625Z,57.75
2018-06-24T12:51:24.605Z,57.50
2018-06-24T12:52:24.594Z,59.11
2018-06-24T12:53:24.597Z,58.92
2018-06-24T12:54:24.583Z,58.56
2018-06-24T12:55:24.559Z,57.43
2018-06-24T12:56:24.549Z,57.14
2018-06-24T12:57:24.537Z,57.75
2018-06-24T12:58:24.647Z,57.92
2018-06-24T12:59:24.876Z,59.45
2018-06-24T13:00:25.135Z,59.81
2018-06-24T13:01:24.489Z,60.13
2018-06-24T13:02:24.480Z,60.13
2018-06-24T13:03:24.469Z,60.68
2018-06-24T13:04:24.462Z,59.81
2018-06-24T13:05:24.456Z,60.68
2018-06-24T13:06:24.436Z,59.17
2018-06-24T13:07:24.425Z,58.88
2018-06-24T13:08:24.413Z,58.42
2018-06-24T13:09:24.402Z,56.69
2018-06-24T13:10:24.388Z,58.04
2018-06-24T13:11:24.393Z,57.62
2018-06-24T13:12:24.928Z,58.30
2018-06-24T13:13:24.354Z,57.72
2018-06-24T13:14:24.345Z,57.60
2018-06-24T13:15:24.333Z,59.36
2018-06-24T13:16:24.321Z,59.04
2018-06-24T13:17:24.328Z,60.20
2018-06-24T13:18:24.297Z,60.30
2018-06-24T13:19:24.289Z,61.58
2018-06-24T13:20:24.276Z,59.33
2018-06-24T13:21:24.266Z,60.39
2018-06-24T13:22:24.252Z,61.22
2018-06-24T13:23:24.253Z,61.65
2018-06-24T13:24:24.234Z,59.47
2018-06-24T13:25:24.221Z,60.14
2018-06-24T13:26:24.213Z,59.27
2018-06-24T13:27:24.195Z,59.27
2018-06-24T13:28:24.202Z,59.56
2018-06-24T13:29:24.175Z,59.81
2018-06-24T13:30:24.161Z,59.69
2018-06-24T13:31:24.152Z,58.82
2018-06-24T13:32:24.138Z,59.43
2018-06-24T13:33:24.126Z,59.33
2018-06-24T13:34:24.130Z,59.23
2018-06-24T13:35:24.102Z,58.27
2018-06-24T13:36:24.093Z,58.37
2018-06-24T13:37:24.078Z,58.01
2018-06-24T13:38:24.065Z,57.02
2018-06-24T13:39:24.079Z,56.95
2018-06-24T13:40:24.059Z,56.76
2018-06-24T13:41:24.032Z,56.27
2018-06-24T13:42:24.094Z,56.25
2018-06-24T13:43:24.008Z,57.02
2018-06-24T13:44:23.997Z,57.02
2018-06-24T13:45:23.997Z,57.28
2018-06-24T13:46:23.975Z,57.98
2018-06-24T13:47:23.963Z,58.47
2018-06-24T13:48:23.951Z,59.33
2018-06-24T13:49:23.942Z,58.47
2018-06-24T13:50:23.944Z,58.47
2018-06-24T13:51:23.960Z,58.44
2018-06-24T13:52:23.903Z,59.52
2018-06-24T13:53:23.892Z,59.62
2018-06-24T13:54:23.884Z,57.12
2018-06-24T13:55:23.870Z,57.57
2018-06-24T13:56:23.868Z,57.40
2018-06-24T13:57:23.846Z,57.73
2018-06-24T13:58:23.834Z,58.05
2018-06-24T13:59:23.824Z,57.47
2018-06-24T14:00:23.811Z,57.79
2018-06-24T14:01:23.812Z,57.37
2018-06-24T14:02:23.786Z,57.54
2018-06-24T14:03:23.774Z,58.05
2018-06-24T14:04:23.762Z,57.76
2018-06-24T14:05:23.751Z,58.75
2018-06-24T14:06:23.739Z,57.50
2018-06-24T14:07:23.740Z,56.85
2018-06-24T14:08:23.715Z,57.05
2018-06-24T14:09:23.701Z,57.12
2018-06-24T14:10:23.689Z,57.62
2018-06-24T14:11:23.678Z,56.63
2018-06-24T14:12:23.667Z,58.49
2018-06-24T14:13:23.665Z,57.24
2018-06-24T14:14:23.643Z,56.95
2018-06-24T14:15:23.631Z,55.73
2018-06-24T14:16:23.620Z,56.30
2018-06-24T14:17:23.609Z,56.35
2018-06-24T14:18:23.615Z,56.95
2018-06-24T14:19:23.588Z,57.40
2018-06-24T14:20:23.575Z,57.79
2018-06-24T14:21:23.562Z,58.65
2018-06-24T14:22:23.556Z,58.49
2018-06-24T14:23:23.591Z,58.69
2018-06-24T14:24:23.538Z,56.82
2018-06-24T14:25:23.514Z,57.31
2018-06-24T14:26:23.510Z,57.92
2018-06-24T14:27:23.496Z,56.88
2018-06-24T14:28:23.482Z,56.27
2018-06-24T14:29:23.497Z,55.85
2018-06-24T14:30:23.459Z,56.16
2018-06-24T14:31:23.448Z,55.56
2018-06-24T14:32:23.440Z,55.36
2018-06-24T14:33:23.426Z,55.66
2018-06-24T14:34:23.414Z,55.24
2018-06-24T14:35:23.417Z,55.34
2018-06-24T14:36:23.396Z,55.76
2018-06-24T14:37:23.382Z,55.08
2018-06-24T14:38:23.370Z,55.54
2018-06-24T14:39:23.360Z,55.18
2018-06-24T14:40:23.384Z,55.59
2018-06-24T14:41:23.338Z,55.04
2018-06-24T14:42:23.341Z,54.29
2018-06-24T14:43:23.317Z,54.00
2018-06-24T14:44:23.307Z,54.33
2018-06-24T14:45:23.296Z,54.91
2018-06-24T14:46:23.300Z,54.84
2018-06-24T14:47:23.281Z,53.95
2018-06-24T14:48:23.268Z,54.57
2018-06-24T14:49:23.257Z,55.34
2018-06-24T14:50:23.246Z,55.82
2018-06-24T14:51:23.271Z,55.44
2018-06-24T14:52:23.228Z,55.85
2018-06-24T14:53:23.217Z,55.24
2018-06-24T14:54:23.207Z,54.88
2018-06-24T14:55:23.196Z,55.05
2018-06-24T14:56:23.186Z,56.27
2018-06-24T14:57:23.203Z,56.92
2018-06-24T14:58:23.166Z,57.21
2018-06-24T14:59:23.155Z,56.95
2018-06-24T15:00:23.145Z,57.05
2018-06-24T15:01:23.149Z,57.57
2018-06-24T15:02:23.165Z,58.95
2018-06-24T15:03:23.118Z,59.30
2018-06-24T15:04:23.110Z,59.43
2018-06-24T15:05:23.092Z,60.17
2018-06-24T15:06:23.079Z,60.39
2018-06-24T15:07:23.071Z,61.96
2018-06-24T15:08:23.077Z,59.62
2018-06-24T15:09:23.056Z,60.52
2018-06-24T15:10:23.039Z,59.75
2018-06-24T15:11:23.071Z,59.72
2018-06-24T15:12:23.016Z,61.16
2018-06-24T15:13:23.022Z,60.07
2018-06-24T15:14:22.992Z,60.46
2018-06-24T15:15:22.982Z,60.75
2018-06-24T15:16:22.973Z,61.32
2018-06-24T15:17:22.958Z,62.09
2018-06-24T15:18:22.947Z,61.71
2018-06-24T15:19:22.950Z,62.29
2018-06-24T15:20:22.925Z,62.00
2018-06-24T15:21:22.913Z,62.13
2018-06-24T15:22:22.901Z,62.32
2018-06-24T15:23:22.890Z,62.90
2018-06-24T15:24:22.894Z,63.09
2018-06-24T15:25:22.868Z,63.38
2018-06-24T15:26:22.855Z,64.28
2018-06-24T15:27:22.842Z,63.79
2018-06-24T15:28:22.830Z,63.51
2018-06-24T15:29:22.815Z,63.57
2018-06-24T15:30:22.822Z,65.27
2018-06-24T15:31:22.792Z,64.12
2018-06-24T15:32:22.781Z,64.12
2018-06-24T15:33:22.767Z,64.12
2018-06-24T15:34:22.754Z,64.02
2018-06-24T15:35:22.745Z,64.60
2018-06-24T15:36:22.742Z,65.27
2018-06-24T15:37:22.717Z,64.69
2018-06-24T15:38:22.704Z,65.27
2018-06-24T15:39:22.690Z,65.66
2018-06-24T15:40:22.679Z,66.36
2018-06-24T15:41:22.683Z,65.97
2018-06-24T15:42:22.652Z,65.75
2018-06-24T15:43:22.640Z,65.94
2018-06-24T15:44:22.626Z,65.69
2018-06-24T15:45:22.613Z,66.17
2018-06-24T15:46:22.605Z,66.07
2018-06-24T15:47:22.598Z,65.84
2018-06-24T15:48:22.574Z,66.52
2018-06-24T15:49:22.560Z,67.19
2018-06-24T15:50:22.546Z,67.38
2018-06-24T15:51:22.551Z,67.10
2018-06-24T15:52:22.542Z,66.42
2018-06-24T15:53:22.522Z,67.68
2018-06-24T15:54:22.495Z,67.19
2018-06-24T15:55:22.489Z,67.38
2018-06-24T15:56:22.466Z,67.19
2018-06-24T15:57:22.453Z,66.91
2018-06-24T15:58:22.497Z,67.19
2018-06-24T15:59:22.426Z,67.29
2018-06-24T16:00:22.414Z,67.68
2018-06-24T16:01:22.400Z,67.58
2018-06-24T16:02:22.386Z,68.15
2018-06-24T16:03:22.392Z,69.15
2018-06-24T16:04:22.360Z,67.80
2018-06-24T16:05:22.348Z,68.38
2018-06-24T16:06:22.333Z,68.44
2018-06-24T16:07:22.319Z,68.83
2018-06-24T16:08:22.305Z,68.63
2018-06-24T16:09:22.304Z,71.04
2018-06-24T16:10:22.278Z,70.17
2018-06-24T16:11:22.264Z,69.79
2018-06-24T16:12:22.250Z,69.37
2018-06-24T16:13:22.280Z,71.00
2018-06-24T16:14:22.237Z,72.48
2018-06-24T16:15:22.209Z,71.39
2018-06-24T16:16:22.199Z,71.52
2018-06-24T16:17:22.180Z,71.23
2018-06-24T16:18:22.168Z,70.94
2018-06-24T16:19:22.171Z,70.81
2018-06-24T16:20:22.177Z,71.48
2018-06-24T16:21:22.128Z,71.19
2018-06-24T16:22:22.112Z,71.19
2018-06-24T16:23:22.100Z,71.67
2018-06-24T16:24:22.085Z,71.96
2018-06-24T16:25:22.082Z,72.16
2018-06-24T16:26:22.058Z,73.02
2018-06-24T16:27:22.044Z,73.69
2018-06-24T16:28:22.030Z,73.98
2018-06-24T16:29:22.015Z,72.89
2018-06-24T16:30:22.017Z,74.04
2018-06-24T16:31:21.987Z,73.94
2018-06-24T16:32:21.976Z,74.13
2018-06-24T16:33:21.992Z,74.17
2018-06-24T16:34:21.945Z,74.08
2018-06-24T16:35:21.930Z,74.08
2018-06-24T16:36:21.926Z,75.04
2018-06-24T16:37:21.904Z,74.94
2018-06-24T16:38:21.934Z,74.43
2018-06-24T16:39:21.875Z,74.81
2018-06-24T16:40:21.859Z,75.67
2018-06-24T16:41:21.872Z,76.15
2018-06-24T16:42:21.886Z,76.06
2018-06-24T16:43:21.853Z,76.15
2018-06-24T16:44:21.804Z,76.06
2018-06-24T16:45:21.788Z,76.64
2018-06-24T16:46:21.778Z,76.44
2018-06-24T16:47:21.771Z,76.64
2018-06-24T16:48:21.745Z,77.50
2018-06-24T16:49:21.729Z,78.75
2018-06-24T16:50:21.715Z,77.69
2018-06-24T16:51:21.702Z,78.17
2018-06-24T16:52:21.704Z,77.31
2018-06-24T16:53:21.681Z,77.50
2018-06-24T16:54:21.658Z,78.08
2018-06-24T16:55:21.643Z,78.45
2018-06-24T16:56:21.633Z,79.55
2018-06-24T16:57:21.613Z,80.90
2018-06-24T16:58:21.621Z,78.59
2018-06-24T16:59:21.584Z,77.88
2018-06-24T17:00:21.572Z,78.59
2018-06-24T17:01:21.555Z,79.27
2018-06-24T17:02:21.541Z,78.59
2018-06-24T17:03:21.531Z,77.92
2018-06-24T17:04:21.524Z,77.15
2018-06-24T17:05:21.497Z,78.21
2018-06-24T17:06:21.482Z,77.73
2018-06-24T17:07:21.474Z,78.59
2018-06-24T17:08:21.458Z,78.40
2018-06-24T17:09:21.463Z,80.51
2018-06-24T17:10:21.426Z,78.78
2018-06-24T17:11:21.415Z,77.83
2018-06-24T17:12:21.398Z,78.69
2018-06-24T17:13:21.390Z,78.59
2018-06-24T17:14:21.369Z,79.55
2018-06-24T17:15:21.364Z,79.07
2018-06-24T17:16:21.340Z,79.65
2018-06-24T17:17:21.323Z,79.55
2018-06-24T17:18:21.311Z,79.80
2018-06-24T17:19:21.295Z,80.32
2018-06-24T17:20:21.303Z,80.51
2018-06-24T17:21:21.266Z,80.04
2018-06-24T17:22:21.254Z,79.94
2018-06-24T17:23:21.239Z,81.19
2018-06-24T17:24:21.261Z,81.38
2018-06-24T17:25:21.209Z,80.71
2018-06-24T17:26:21.207Z,81.57
2018-06-24T17:27:21.181Z,81.82
2018-06-24T17:28:21.168Z,81.72
2018-06-24T17:29:21.151Z,82.68
2018-06-24T17:30:21.139Z,82.97
2018-06-24T17:31:21.147Z,82.49
2018-06-24T17:32:21.109Z,82.20
2018-06-24T17:33:21.095Z,84.03
2018-06-24T17:34:21.083Z,82.68
2018-06-24T17:35:21.066Z,83.16
2018-06-24T17:36:21.052Z,82.34
2018-06-24T17:37:21.047Z,82.97
2018-06-24T17:38:21.020Z,82.59
2018-06-24T17:39:21.010Z,83.26
2018-06-24T17:40:20.996Z,83.36
2018-06-24T17:41:20.978Z,83.26
2018-06-24T17:42:20.974Z,83.74
2018-06-24T17:43:20.949Z,83.74
2018-06-24T17:44:20.932Z,83.07
2018-06-24T17:45:20.921Z,84.31
2018-06-24T17:46:20.907Z,83.74
2018-06-24T17:47:20.921Z,84.84
2018-06-24T17:48:20.882Z,84.31
2018-06-24T17:49:20.861Z,84.80
2018-06-24T17:50:20.859Z,85.85
2018-06-24T17:51:20.835Z,84.70